Philadelphia, Pennsylvania
Traffic Map
Current Weather Conditions
Philadelphia, Pennsylvania
Clear
Clear
78°
Feels Like: 80°
Wind Chill: 78° Ceiling: Unl
Heat Index: 80° Visibility: 10mi
Dew Point: 66° Wind: 5mph
Humidity: 66% Direction: 330° (NNW)
Pressure: 30.1in Gusts: 0mph
Raw Report DataKPHL 270554Z 33004KT 10SM CLR 26/19 A3010 RMK AO2 SLP192 T02560189 10317 20256 51010 $
Traffic Incident Summary
Active as of:
Severity:
Category:
InformationThere was an issue retrieving the traffic information for this location. Please try a different location or try again shortly.
Advertisements
Track Severe Weather on mobile